createdAt,value
2017-12-31T05:00:48.618Z,0
2017-12-31T05:01:14.146Z,0
2017-12-31T05:01:39.663Z,0
2017-12-31T05:03:03.119Z,0
2017-12-31T05:03:28.620Z,0
2017-12-31T05:03:54.168Z,0
2017-12-31T05:04:19.714Z,0
2017-12-31T05:04:45.193Z,0
2017-12-31T05:05:10.701Z,0
2017-12-31T05:05:36.211Z,0
2017-12-31T05:06:01.703Z,0
2017-12-31T05:06:27.230Z,0
2017-12-31T05:06:52.709Z,0
2017-12-31T05:07:18.240Z,0
2017-12-31T05:07:43.785Z,0
2017-12-31T05:08:09.296Z,0
2017-12-31T05:08:34.785Z,0
2017-12-31T05:09:00.235Z,0
2017-12-31T05:09:25.748Z,0
2017-12-31T05:09:51.266Z,0
2017-12-31T05:10:16.763Z,0
2017-12-31T05:10:42.233Z,0
2017-12-31T05:11:07.714Z,0
2017-12-31T05:11:33.192Z,0
2017-12-31T05:11:58.673Z,0
2017-12-31T05:12:24.129Z,0
2017-12-31T05:12:49.665Z,0
2017-12-31T05:13:15.129Z,0
2017-12-31T05:13:40.627Z,0
2017-12-31T05:14:06.104Z,0
2017-12-31T05:14:31.589Z,0
2017-12-31T05:14:57.091Z,0
2017-12-31T05:15:22.565Z,0
2017-12-31T05:15:48.081Z,0
2017-12-31T05:16:13.611Z,0
2017-12-31T05:16:39.183Z,0
2017-12-31T05:17:52.515Z,0
2017-12-31T05:18:18.032Z,0
2017-12-31T05:18:43.512Z,0
2017-12-31T05:19:09.002Z,0
2017-12-31T05:19:34.495Z,0
2017-12-31T05:20:00.002Z,0
2017-12-31T05:20:25.543Z,0
2017-12-31T05:20:51.011Z,0
2017-12-31T05:21:16.471Z,0
2017-12-31T05:21:41.987Z,0
2017-12-31T05:22:07.503Z,0
2017-12-31T05:22:33.019Z,0
2017-12-31T05:22:58.545Z,0
2017-12-31T05:23:24.025Z,0
2017-12-31T05:23:49.538Z,0
2017-12-31T05:24:15.053Z,0
2017-12-31T05:24:40.563Z,0
2017-12-31T05:25:06.068Z,0
2017-12-31T05:25:31.570Z,0
2017-12-31T05:25:57.134Z,0
2017-12-31T05:26:22.628Z,0
2017-12-31T05:26:48.136Z,0
2017-12-31T05:27:13.653Z,0
2017-12-31T05:27:39.116Z,0
2017-12-31T05:28:04.628Z,0
2017-12-31T05:28:30.115Z,0
2017-12-31T05:29:38.327Z,0
2017-12-31T05:30:03.840Z,0
2017-12-31T05:30:29.402Z,0
2017-12-31T05:30:54.889Z,0
2017-12-31T05:31:20.402Z,0
2017-12-31T05:31:45.897Z,0
2017-12-31T05:32:11.391Z,0
2017-12-31T05:32:36.880Z,0
2017-12-31T05:33:02.395Z,0
2017-12-31T05:33:27.921Z,0
2017-12-31T05:33:53.453Z,0
2017-12-31T05:35:07.685Z,0
2017-12-31T05:35:33.169Z,0
2017-12-31T05:35:58.628Z,0
2017-12-31T05:36:24.093Z,0
2017-12-31T05:36:49.570Z,0
2017-12-31T05:37:15.063Z,0
2017-12-31T05:37:40.519Z,0
2017-12-31T05:38:05.992Z,0
2017-12-31T05:38:31.497Z,0
2017-12-31T05:38:56.980Z,0
2017-12-31T05:39:22.458Z,0
2017-12-31T05:39:48.005Z,0
2017-12-31T05:40:13.524Z,0
2017-12-31T05:40:38.960Z,0
2017-12-31T05:41:57.395Z,0
2017-12-31T05:42:22.890Z,0
2017-12-31T05:42:48.361Z,0
2017-12-31T05:43:13.830Z,0
2017-12-31T05:43:39.347Z,0
2017-12-31T05:44:04.850Z,0
2017-12-31T05:44:30.336Z,0
2017-12-31T05:44:55.841Z,0
2017-12-31T05:45:21.366Z,0
2017-12-31T05:45:46.900Z,0
2017-12-31T05:46:12.421Z,0
2017-12-31T05:46:37.912Z,0
2017-12-31T05:47:03.450Z,0
2017-12-31T05:47:28.928Z,0
2017-12-31T05:47:54.433Z,0
2017-12-31T05:48:19.962Z,0
2017-12-31T05:48:45.466Z,0
2017-12-31T05:49:10.958Z,0
2017-12-31T05:49:36.438Z,0
2017-12-31T05:50:01.950Z,0
2017-12-31T05:50:27.453Z,0
2017-12-31T05:50:52.972Z,0
2017-12-31T05:51:18.464Z,0
2017-12-31T05:51:43.985Z,0
2017-12-31T05:53:13.077Z,0
2017-12-31T05:53:38.602Z,0
2017-12-31T05:54:04.126Z,0
2017-12-31T05:54:29.574Z,0
2017-12-31T05:54:55.066Z,0
2017-12-31T05:55:20.536Z,0
2017-12-31T05:55:46.037Z,0
2017-12-31T05:56:11.561Z,0
2017-12-31T05:56:37.034Z,0
2017-12-31T05:57:02.529Z,0
2017-12-31T05:57:28.015Z,0
2017-12-31T05:57:53.525Z,0
2017-12-31T05:58:19.029Z,0
2017-12-31T05:58:44.506Z,0
2017-12-31T05:59:09.999Z,0
2017-12-31T05:59:35.538Z,0
2017-12-31T06:00:01.028Z,0
2017-12-31T06:00:26.519Z,0
2017-12-31T06:00:52.011Z,0
2017-12-31T06:01:17.510Z,0
2017-12-31T06:01:42.989Z,0
2017-12-31T06:02:08.532Z,0
2017-12-31T06:02:34.033Z,0
2017-12-31T06:02:59.522Z,0
2017-12-31T06:03:24.990Z,0
2017-12-31T06:03:50.503Z,0
2017-12-31T06:04:16.011Z,0
2017-12-31T06:04:41.487Z,0
2017-12-31T06:05:07.020Z,0
2017-12-31T06:05:32.522Z,0
2017-12-31T06:05:58.018Z,0
2017-12-31T06:06:23.503Z,0
2017-12-31T06:06:49.001Z,0
2017-12-31T06:07:14.529Z,0
2017-12-31T06:07:40.033Z,0
2017-12-31T06:08:05.598Z,0
2017-12-31T06:08:31.109Z,0
2017-12-31T06:08:56.574Z,0
2017-12-31T06:09:22.064Z,0
2017-12-31T06:09:47.542Z,0
2017-12-31T06:10:13.044Z,0
2017-12-31T06:10:38.545Z,0
2017-12-31T06:11:04.040Z,0
2017-12-31T06:11:29.535Z,0
2017-12-31T06:11:55.056Z,0
2017-12-31T06:12:20.525Z,0
2017-12-31T06:12:46.092Z,0
2017-12-31T06:14:09.658Z,0
2017-12-31T06:14:35.164Z,0
2017-12-31T06:15:00.645Z,0
2017-12-31T06:15:26.144Z,0
2017-12-31T06:16:39.468Z,0
2017-12-31T06:17:04.929Z,0
2017-12-31T06:17:30.496Z,0
2017-12-31T06:17:56.064Z,0
2017-12-31T06:18:21.602Z,0
2017-12-31T06:18:47.191Z,0
2017-12-31T06:19:12.661Z,0
2017-12-31T06:19:38.177Z,0
2017-12-31T06:20:03.670Z,0
2017-12-31T06:20:29.149Z,0
2017-12-31T06:20:54.649Z,0
2017-12-31T06:22:07.956Z,0
2017-12-31T06:22:33.465Z,0
2017-12-31T06:22:58.957Z,0
2017-12-31T06:23:24.463Z,0
2017-12-31T06:23:49.923Z,0
2017-12-31T06:24:15.395Z,0
2017-12-31T06:24:40.888Z,0
2017-12-31T06:25:06.347Z,0
2017-12-31T06:25:31.845Z,0
2017-12-31T06:25:57.346Z,0
2017-12-31T06:26:22.864Z,0
2017-12-31T06:26:48.367Z,0
2017-12-31T06:28:02.173Z,0
2017-12-31T06:28:27.664Z,0
2017-12-31T06:28:53.150Z,0
2017-12-31T06:29:18.715Z,0
2017-12-31T06:30:27.393Z,0
2017-12-31T06:30:52.900Z,0
2017-12-31T06:31:18.404Z,0
2017-12-31T06:31:43.901Z,0
2017-12-31T06:32:09.383Z,0
2017-12-31T06:32:34.879Z,0
2017-12-31T06:33:00.371Z,0
2017-12-31T06:33:25.901Z,0
2017-12-31T06:33:51.381Z,0
2017-12-31T06:35:20.481Z,0
2017-12-31T06:35:45.974Z,0
2017-12-31T06:36:11.462Z,0
2017-12-31T06:36:36.970Z,0
2017-12-31T06:37:02.473Z,0
2017-12-31T06:37:27.933Z,0
2017-12-31T06:37:53.424Z,0
2017-12-31T06:38:18.922Z,0
2017-12-31T06:38:44.423Z,0
2017-12-31T06:39:09.906Z,0
2017-12-31T06:39:35.392Z,0
2017-12-31T06:40:00.878Z,0
2017-12-31T06:40:26.404Z,0
2017-12-31T06:40:51.886Z,0
2017-12-31T06:41:17.375Z,0
2017-12-31T06:41:42.890Z,0
2017-12-31T06:42:08.355Z,0
2017-12-31T06:42:33.853Z,0
2017-12-31T06:42:59.292Z,0
2017-12-31T06:43:24.818Z,0
2017-12-31T06:43:50.337Z,0
2017-12-31T06:44:15.792Z,0
2017-12-31T06:44:41.309Z,0
2017-12-31T06:45:06.845Z,0
2017-12-31T06:45:32.316Z,0
2017-12-31T06:46:55.812Z,0
2017-12-31T06:47:21.324Z,0
2017-12-31T06:47:46.823Z,0
2017-12-31T06:48:12.336Z,0
2017-12-31T06:48:37.794Z,0
2017-12-31T06:49:03.251Z,0
2017-12-31T06:49:28.743Z,0
2017-12-31T06:49:54.207Z,0
2017-12-31T06:50:19.698Z,0
2017-12-31T06:50:45.206Z,0
2017-12-31T06:51:10.716Z,0
2017-12-31T06:51:36.212Z,0
2017-12-31T06:52:01.684Z,0
2017-12-31T06:52:27.170Z,0
2017-12-31T06:53:46.469Z,0
2017-12-31T06:54:11.993Z,0
2017-12-31T06:54:37.429Z,0
2017-12-31T06:55:02.905Z,0
2017-12-31T06:55:28.420Z,0
2017-12-31T06:55:53.929Z,0
2017-12-31T06:56:19.423Z,0
2017-12-31T06:56:44.924Z,0
2017-12-31T06:57:10.412Z,0
2017-12-31T06:57:35.920Z,0
2017-12-31T06:58:01.404Z,0
2017-12-31T06:58:26.936Z,0
2017-12-31T06:58:52.470Z,0
2017-12-31T06:59:18.000Z,0
2017-12-31T06:59:43.537Z,0
2017-12-31T07:00:09.052Z,0
2017-12-31T07:00:34.559Z,0
2017-12-31T07:01:58.100Z,0
2017-12-31T07:02:23.580Z,0
2017-12-31T07:02:49.135Z,0
2017-12-31T07:03:14.601Z,0
2017-12-31T07:03:40.089Z,0
2017-12-31T07:04:05.576Z,0
2017-12-31T07:04:31.065Z,0
2017-12-31T07:04:56.567Z,0
2017-12-31T07:05:22.068Z,0
2017-12-31T07:05:47.646Z,0
2017-12-31T07:06:13.146Z,0
2017-12-31T07:06:38.674Z,0
2017-12-31T07:07:04.203Z,0
2017-12-31T07:07:29.704Z,0
2017-12-31T07:07:55.239Z,0
2017-12-31T07:08:20.781Z,0
2017-12-31T07:08:46.300Z,0
2017-12-31T07:09:11.791Z,0
2017-12-31T07:09:37.312Z,0
2017-12-31T07:10:02.813Z,0
2017-12-31T07:10:28.290Z,0
2017-12-31T07:10:53.807Z,0
2017-12-31T07:11:19.300Z,0
2017-12-31T07:11:44.821Z,0
2017-12-31T07:12:10.280Z,0
2017-12-31T07:12:35.747Z,0
2017-12-31T07:13:01.237Z,0
2017-12-31T07:14:14.541Z,0
2017-12-31T07:14:40.018Z,0
2017-12-31T07:15:05.536Z,0
2017-12-31T07:15:31.020Z,0
2017-12-31T07:15:56.499Z,0
2017-12-31T07:16:22.020Z,0
2017-12-31T07:16:47.516Z,0
2017-12-31T07:18:16.634Z,0
2017-12-31T07:18:42.130Z,0
2017-12-31T07:19:07.644Z,0
2017-12-31T07:19:33.166Z,0
2017-12-31T07:19:58.654Z,0
2017-12-31T07:20:24.188Z,0
2017-12-31T07:21:43.182Z,0
2017-12-31T07:22:08.649Z,0
2017-12-31T07:22:34.166Z,0
2017-12-31T07:22:59.626Z,0
2017-12-31T07:23:25.190Z,0
2017-12-31T07:23:50.724Z,0
2017-12-31T07:24:16.188Z,0
2017-12-31T07:24:41.759Z,0
2017-12-31T07:25:07.222Z,0
2017-12-31T07:25:32.739Z,0
2017-12-31T07:25:58.218Z,0
2017-12-31T07:26:23.716Z,0
2017-12-31T07:26:49.247Z,0
2017-12-31T07:27:14.728Z,0
2017-12-31T07:27:40.233Z,0
2017-12-31T07:28:05.743Z,0
2017-12-31T07:28:31.238Z,0
2017-12-31T07:28:56.733Z,0
2017-12-31T07:29:22.236Z,0
2017-12-31T07:29:47.744Z,0
2017-12-31T07:30:13.247Z,0
2017-12-31T07:30:38.701Z,0
2017-12-31T07:31:04.206Z,0
2017-12-31T07:31:29.707Z,0
2017-12-31T07:31:55.203Z,0
2017-12-31T07:32:20.719Z,0
2017-12-31T07:32:46.224Z,0
2017-12-31T07:33:11.774Z,0
2017-12-31T07:33:37.276Z,0
2017-12-31T07:34:02.756Z,0
2017-12-31T07:34:28.294Z,0
2017-12-31T07:34:53.804Z,0
2017-12-31T07:35:19.337Z,0
2017-12-31T07:36:43.382Z,0
2017-12-31T07:37:08.893Z,0
2017-12-31T07:37:34.396Z,0
2017-12-31T07:37:59.897Z,0
2017-12-31T07:38:25.343Z,0
2017-12-31T07:38:50.841Z,0
2017-12-31T07:39:16.356Z,0
2017-12-31T07:39:41.853Z,0
2017-12-31T07:40:07.401Z,0
2017-12-31T07:40:32.920Z,0
2017-12-31T07:42:02.048Z,0
2017-12-31T07:42:27.553Z,0
2017-12-31T07:42:53.038Z,0
2017-12-31T07:43:18.524Z,0
2017-12-31T07:43:44.011Z,0
2017-12-31T07:44:09.511Z,0
2017-12-31T07:44:35.006Z,0
2017-12-31T07:45:00.496Z,0
2017-12-31T07:45:26.004Z,0
2017-12-31T07:45:51.438Z,0
2017-12-31T07:46:59.600Z,0
2017-12-31T07:47:25.105Z,0
2017-12-31T07:47:50.620Z,0
2017-12-31T07:48:16.094Z,0
2017-12-31T07:48:41.591Z,0
2017-12-31T07:49:07.084Z,0
2017-12-31T07:49:32.666Z,0
2017-12-31T07:49:58.158Z,0
2017-12-31T07:50:23.658Z,0
2017-12-31T07:50:49.185Z,0
2017-12-31T07:51:14.702Z,0
2017-12-31T07:51:40.189Z,0
2017-12-31T07:52:05.721Z,0
2017-12-31T07:52:31.190Z,0
2017-12-31T07:52:56.691Z,0
2017-12-31T07:53:22.179Z,0
2017-12-31T07:53:47.669Z,0
2017-12-31T07:54:13.382Z,0
2017-12-31T07:54:38.934Z,0
2017-12-31T07:55:04.433Z,0
2017-12-31T07:55:30.013Z,0
2017-12-31T07:55:55.612Z,0
2017-12-31T07:56:21.050Z,0
2017-12-31T07:56:46.547Z,0
2017-12-31T07:57:12.137Z,0
2017-12-31T07:57:37.593Z,0
2017-12-31T07:58:03.062Z,0
2017-12-31T07:58:28.573Z,0
2017-12-31T07:58:54.035Z,0
2017-12-31T07:59:19.560Z,0
2017-12-31T07:59:45.074Z,0
2017-12-31T08:00:10.526Z,0
2017-12-31T08:00:36.038Z,5
2017-12-31T08:01:01.538Z,5
2017-12-31T08:01:27.002Z,5
2017-12-31T08:01:52.549Z,5
2017-12-31T08:02:18.072Z,5
2017-12-31T08:02:43.570Z,5
2017-12-31T08:03:09.057Z,5
2017-12-31T08:03:34.580Z,5
2017-12-31T08:04:00.072Z,5
2017-12-31T08:04:25.544Z,5
2017-12-31T08:04:51.108Z,5
2017-12-31T08:05:16.624Z,5
2017-12-31T08:05:42.242Z,5
2017-12-31T08:06:07.786Z,5
2017-12-31T08:06:33.303Z,5
2017-12-31T08:06:58.784Z,5
2017-12-31T08:07:24.264Z,5
2017-12-31T08:07:49.777Z,5
2017-12-31T08:08:15.294Z,5
2017-12-31T08:08:40.771Z,5
2017-12-31T08:09:06.305Z,10
2017-12-31T08:09:31.905Z,10
2017-12-31T08:09:57.511Z,10
2017-12-31T08:10:23.019Z,10
2017-12-31T08:10:48.532Z,10
2017-12-31T08:11:14.019Z,10
2017-12-31T08:11:39.485Z,10
2017-12-31T08:12:05.004Z,10
2017-12-31T08:12:30.466Z,10
2017-12-31T08:12:56.009Z,10
2017-12-31T08:13:21.507Z,10
2017-12-31T08:13:47.012Z,10
2017-12-31T08:14:12.503Z,10
2017-12-31T08:15:21.524Z,10
2017-12-31T08:15:47.018Z,10
2017-12-31T08:16:12.501Z,10
2017-12-31T08:16:37.996Z,10
2017-12-31T08:17:03.502Z,10
2017-12-31T08:17:28.956Z,10
2017-12-31T08:17:54.470Z,15
2017-12-31T08:18:19.985Z,10
2017-12-31T08:18:45.456Z,15
2017-12-31T08:19:10.947Z,10
2017-12-31T08:19:36.454Z,10
2017-12-31T08:20:02.036Z,10
2017-12-31T08:20:27.543Z,15
2017-12-31T08:20:53.003Z,15
2017-12-31T08:21:18.527Z,15
2017-12-31T08:21:44.035Z,15
2017-12-31T08:22:09.603Z,15
2017-12-31T08:22:35.107Z,15
2017-12-31T08:23:43.792Z,15
2017-12-31T08:24:09.359Z,10
2017-12-31T08:24:34.847Z,10
2017-12-31T08:25:00.302Z,10
2017-12-31T08:26:09.001Z,10
2017-12-31T08:26:34.700Z,10
2017-12-31T08:27:00.347Z,10
2017-12-31T08:27:25.865Z,10
2017-12-31T08:27:51.401Z,5
2017-12-31T08:28:16.904Z,5
2017-12-31T08:28:42.503Z,5
2017-12-31T08:29:07.948Z,5
2017-12-31T08:30:31.997Z,5
2017-12-31T08:30:57.496Z,5
2017-12-31T08:32:26.621Z,5
2017-12-31T08:32:52.165Z,5
2017-12-31T08:33:17.633Z,5
2017-12-31T08:33:43.101Z,5
2017-12-31T08:34:08.642Z,5
2017-12-31T08:34:34.122Z,5
2017-12-31T08:35:47.886Z,5
2017-12-31T08:36:13.405Z,5
2017-12-31T08:36:38.964Z,5
2017-12-31T08:37:04.480Z,5
2017-12-31T08:37:30.034Z,10
2017-12-31T08:37:55.498Z,10
2017-12-31T08:38:20.998Z,5
2017-12-31T08:38:46.525Z,5
2017-12-31T08:39:12.090Z,5
2017-12-31T08:39:37.632Z,5
2017-12-31T08:40:03.149Z,10
2017-12-31T08:40:28.644Z,10
2017-12-31T08:40:54.178Z,10
2017-12-31T08:41:19.654Z,10
2017-12-31T08:42:43.197Z,10
2017-12-31T08:43:08.741Z,15
2017-12-31T08:44:17.430Z,20
2017-12-31T08:44:42.925Z,20
2017-12-31T08:45:08.398Z,20
2017-12-31T08:45:33.953Z,15
2017-12-31T08:45:59.522Z,20
2017-12-31T08:46:25.024Z,20
2017-12-31T08:46:50.508Z,15
2017-12-31T08:47:16.107Z,15
2017-12-31T08:47:41.660Z,15
2017-12-31T08:48:07.204Z,20
2017-12-31T08:48:32.780Z,20
2017-12-31T08:49:41.476Z,20
2017-12-31T08:50:06.986Z,20
2017-12-31T08:50:32.462Z,25
2017-12-31T08:50:57.929Z,25
2017-12-31T08:51:23.469Z,25
2017-12-31T08:51:48.976Z,30
2017-12-31T08:52:14.529Z,30
2017-12-31T08:52:40.061Z,25
2017-12-31T08:53:05.596Z,30
2017-12-31T08:53:31.122Z,30
2017-12-31T08:53:56.622Z,30
2017-12-31T08:54:22.124Z,25
2017-12-31T08:54:47.610Z,25
2017-12-31T08:55:13.107Z,25
2017-12-31T08:55:38.566Z,25
2017-12-31T08:56:04.069Z,20
2017-12-31T08:56:29.574Z,20
2017-12-31T08:56:55.071Z,20
2017-12-31T08:57:20.598Z,25
2017-12-31T08:57:46.116Z,25
2017-12-31T08:58:11.615Z,30
2017-12-31T08:58:37.134Z,25
2017-12-31T08:59:02.685Z,25
2017-12-31T08:59:28.145Z,30
2017-12-31T08:59:53.631Z,30
2017-12-31T09:00:19.116Z,30
2017-12-31T09:00:44.624Z,30
2017-12-31T09:01:10.101Z,35
2017-12-31T09:02:18.832Z,40
2017-12-31T09:02:44.330Z,40
2017-12-31T09:03:09.842Z,35
2017-12-31T09:03:35.337Z,30
2017-12-31T09:04:00.825Z,25
2017-12-31T09:04:26.310Z,20
2017-12-31T09:04:51.787Z,20
2017-12-31T09:05:17.288Z,20
2017-12-31T09:05:42.810Z,15
2017-12-31T09:06:08.344Z,15
2017-12-31T09:06:33.868Z,20
2017-12-31T09:06:59.365Z,20
2017-12-31T09:07:24.906Z,20
2017-12-31T09:07:50.436Z,25
2017-12-31T09:08:15.873Z,25
2017-12-31T09:08:41.381Z,25
2017-12-31T09:09:06.857Z,25
2017-12-31T09:09:32.354Z,25
2017-12-31T09:10:51.001Z,30
2017-12-31T09:11:16.486Z,25
2017-12-31T09:11:42.025Z,25
2017-12-31T09:12:07.493Z,20
2017-12-31T09:12:33.007Z,20
2017-12-31T09:12:58.470Z,20
2017-12-31T09:13:23.990Z,20
2017-12-31T09:13:49.553Z,20
2017-12-31T09:14:15.004Z,20
2017-12-31T09:15:39.745Z,25
2017-12-31T09:16:05.224Z,30
2017-12-31T09:16:30.713Z,35
2017-12-31T09:16:56.196Z,30
2017-12-31T09:17:21.702Z,35
2017-12-31T09:17:47.210Z,35
2017-12-31T09:18:12.647Z,35
2017-12-31T09:18:38.154Z,40
2017-12-31T09:19:03.599Z,40
2017-12-31T09:19:29.055Z,35
2017-12-31T09:19:54.515Z,30
2017-12-31T09:20:19.993Z,30
2017-12-31T09:20:45.437Z,25
2017-12-31T09:21:10.924Z,25
2017-12-31T09:21:36.448Z,25
2017-12-31T09:22:55.418Z,30
2017-12-31T09:23:20.895Z,30
2017-12-31T09:23:46.431Z,30
2017-12-31T09:24:11.904Z,25
2017-12-31T09:24:37.383Z,25
2017-12-31T09:25:02.876Z,25
2017-12-31T09:25:28.381Z,25
2017-12-31T09:25:53.909Z,20
2017-12-31T09:26:19.456Z,25
2017-12-31T09:26:44.999Z,20
2017-12-31T09:27:10.479Z,20
2017-12-31T09:27:35.936Z,20
2017-12-31T09:28:01.433Z,20
2017-12-31T09:29:10.146Z,20
2017-12-31T09:29:35.626Z,20
2017-12-31T09:30:01.133Z,20
2017-12-31T09:30:26.578Z,20
2017-12-31T09:30:52.099Z,20
2017-12-31T09:31:17.578Z,20
2017-12-31T09:31:43.198Z,20
2017-12-31T09:32:08.700Z,20
2017-12-31T09:32:34.126Z,20
2017-12-31T09:32:59.595Z,15
2017-12-31T09:33:25.235Z,20
2017-12-31T09:33:50.542Z,20
2017-12-31T09:34:16.084Z,15
2017-12-31T09:34:41.538Z,20
2017-12-31T09:35:07.079Z,25
2017-12-31T09:35:32.525Z,25
2017-12-31T09:35:57.956Z,25
2017-12-31T09:36:23.521Z,20
2017-12-31T09:36:48.972Z,25
2017-12-31T09:37:14.468Z,20
2017-12-31T09:37:39.956Z,25
2017-12-31T09:38:05.525Z,35
2017-12-31T09:38:30.925Z,35
2017-12-31T09:38:56.446Z,30
2017-12-31T09:39:21.866Z,35
2017-12-31T09:39:47.351Z,40
2017-12-31T09:40:12.844Z,40
2017-12-31T09:40:38.378Z,35
2017-12-31T09:41:03.851Z,35
2017-12-31T09:41:29.308Z,35
2017-12-31T09:41:54.743Z,30
2017-12-31T09:42:20.264Z,35
2017-12-31T09:42:45.715Z,35
2017-12-31T09:43:11.193Z,30
2017-12-31T09:43:36.638Z,25
2017-12-31T09:44:02.130Z,25
2017-12-31T09:44:27.614Z,20
2017-12-31T09:44:53.084Z,20
2017-12-31T09:45:18.530Z,25
2017-12-31T09:45:44.014Z,25
2017-12-31T09:46:09.471Z,25
2017-12-31T09:46:34.905Z,25
2017-12-31T09:47:00.398Z,20
2017-12-31T09:47:25.851Z,25
2017-12-31T09:47:51.292Z,25
2017-12-31T09:48:16.807Z,25
2017-12-31T09:48:42.333Z,25
2017-12-31T09:49:07.847Z,25
2017-12-31T09:49:33.354Z,30
2017-12-31T09:49:58.813Z,30
2017-12-31T09:50:24.297Z,30
2017-12-31T09:50:49.768Z,25
2017-12-31T09:51:15.214Z,25
2017-12-31T09:52:34.937Z,25
2017-12-31T09:53:00.451Z,25
2017-12-31T09:53:25.960Z,30
2017-12-31T09:53:51.478Z,30
2017-12-31T09:55:10.466Z,25
2017-12-31T09:55:36.090Z,25
2017-12-31T09:57:00.064Z,25
2017-12-31T09:57:25.816Z,25
2017-12-31T09:57:51.253Z,25
2017-12-31T09:58:16.779Z,25
2017-12-31T09:58:42.318Z,20
2017-12-31T09:59:07.853Z,20
2017-12-31T09:59:33.377Z,20
2017-12-31T09:59:58.874Z,25
2017-12-31T10:00:24.441Z,25
2017-12-31T10:00:49.902Z,25
2017-12-31T10:01:15.406Z,25
2017-12-31T10:01:40.972Z,20
2017-12-31T10:02:06.422Z,25
2017-12-31T10:04:13.764Z,30
2017-12-31T10:04:39.312Z,30
2017-12-31T10:05:04.852Z,30
2017-12-31T10:05:30.380Z,30
2017-12-31T10:05:55.891Z,30
2017-12-31T10:06:21.468Z,30
2017-12-31T10:06:46.916Z,30
2017-12-31T10:07:12.349Z,30
2017-12-31T10:07:37.852Z,25
2017-12-31T10:09:01.515Z,25
2017-12-31T10:09:27.048Z,25
2017-12-31T10:09:52.533Z,25
2017-12-31T10:11:01.572Z,25
2017-12-31T10:11:27.091Z,25
2017-12-31T10:11:52.563Z,20
2017-12-31T10:12:18.022Z,25
2017-12-31T10:12:43.553Z,30
2017-12-31T10:13:09.015Z,25
2017-12-31T10:13:34.509Z,25
2017-12-31T10:14:00.028Z,20
2017-12-31T10:14:25.540Z,20
2017-12-31T10:14:51.009Z,20
2017-12-31T10:15:16.495Z,20
2017-12-31T10:15:41.978Z,20
2017-12-31T10:16:07.451Z,20
2017-12-31T10:16:32.981Z,20
2017-12-31T10:16:58.472Z,20
2017-12-31T10:17:23.991Z,20
2017-12-31T10:17:49.489Z,20
2017-12-31T10:18:14.995Z,20
2017-12-31T10:18:40.468Z,20
2017-12-31T10:19:06.017Z,20
2017-12-31T10:19:31.509Z,25
2017-12-31T10:19:56.943Z,25
2017-12-31T10:20:22.481Z,30
2017-12-31T10:20:47.939Z,30
2017-12-31T10:21:13.432Z,30
2017-12-31T10:21:38.912Z,25
2017-12-31T10:22:04.406Z,25
2017-12-31T10:22:29.911Z,25
2017-12-31T10:22:55.428Z,30
2017-12-31T10:23:20.941Z,30
2017-12-31T10:23:46.395Z,30
2017-12-31T10:24:11.904Z,25
2017-12-31T10:24:37.333Z,25
2017-12-31T10:25:02.877Z,20
2017-12-31T10:25:28.368Z,20
2017-12-31T10:25:53.915Z,20
2017-12-31T10:26:19.347Z,20
2017-12-31T10:26:44.844Z,25
2017-12-31T10:27:10.364Z,25
2017-12-31T10:28:39.451Z,35
2017-12-31T10:29:04.974Z,35
2017-12-31T10:29:30.495Z,30
2017-12-31T10:29:56.045Z,30
2017-12-31T10:30:21.487Z,30
2017-12-31T10:30:47.000Z,25
2017-12-31T10:31:12.471Z,25
2017-12-31T10:31:38.026Z,25
2017-12-31T10:32:03.456Z,25
2017-12-31T10:33:12.190Z,30
2017-12-31T10:33:37.663Z,25
2017-12-31T10:34:03.169Z,25
2017-12-31T10:34:28.644Z,30
2017-12-31T10:34:54.138Z,25
2017-12-31T10:35:19.668Z,30
2017-12-31T10:35:45.156Z,25
2017-12-31T10:36:10.612Z,25
2017-12-31T10:36:36.080Z,25
2017-12-31T10:37:01.569Z,25
2017-12-31T10:37:27.076Z,25
2017-12-31T10:37:52.507Z,25
2017-12-31T10:38:18.030Z,25
2017-12-31T10:38:43.472Z,30
2017-12-31T10:39:08.934Z,35
2017-12-31T10:39:34.406Z,30
2017-12-31T10:39:59.907Z,30
2017-12-31T10:40:25.388Z,30
2017-12-31T10:40:50.843Z,35
2017-12-31T10:41:16.260Z,30
2017-12-31T10:42:36.241Z,20
2017-12-31T10:43:01.715Z,25
2017-12-31T10:43:27.202Z,30
2017-12-31T10:43:52.756Z,30
2017-12-31T10:44:18.259Z,35
2017-12-31T10:44:43.770Z,35
2017-12-31T10:45:09.263Z,40
2017-12-31T10:45:34.688Z,55
2017-12-31T10:46:00.208Z,50
2017-12-31T10:46:25.688Z,45
2017-12-31T10:46:51.195Z,50
2017-12-31T10:47:16.682Z,55
2017-12-31T10:47:42.177Z,50
2017-12-31T10:48:07.976Z,50
2017-12-31T10:48:33.346Z,50
2017-12-31T10:48:58.808Z,65
2017-12-31T10:49:24.327Z,60
2017-12-31T10:50:48.387Z,70
2017-12-31T10:51:13.868Z,90
2017-12-31T10:51:39.373Z,105
2017-12-31T10:52:04.876Z,110
2017-12-31T10:52:30.377Z,110
2017-12-31T10:52:55.875Z,120
2017-12-31T10:53:21.382Z,120
2017-12-31T10:53:46.886Z,105
2017-12-31T10:54:12.381Z,135
2017-12-31T10:54:37.870Z,110
2017-12-31T10:55:03.377Z,125
2017-12-31T10:55:28.855Z,125
2017-12-31T10:55:54.324Z,115
2017-12-31T10:56:19.799Z,100
2017-12-31T10:56:45.321Z,90
2017-12-31T10:57:10.796Z,80
2017-12-31T10:57:36.293Z,85
2017-12-31T10:58:01.784Z,90
2017-12-31T10:58:27.237Z,95
2017-12-31T10:58:52.769Z,100
2017-12-31T10:59:18.247Z,105
2017-12-31T10:59:43.756Z,140
2017-12-31T11:00:09.214Z,140
2017-12-31T11:01:38.330Z,95
2017-12-31T11:02:03.818Z,95
2017-12-31T11:02:29.341Z,100
2017-12-31T11:02:54.823Z,100
2017-12-31T11:03:20.359Z,100
2017-12-31T11:04:49.411Z,80
2017-12-31T11:05:14.895Z,85
2017-12-31T11:05:40.422Z,80
2017-12-31T11:06:05.906Z,85
2017-12-31T11:06:31.414Z,95
2017-12-31T11:08:00.535Z,95
2017-12-31T11:08:26.037Z,85
2017-12-31T11:08:51.505Z,75
2017-12-31T11:09:17.083Z,65
2017-12-31T11:09:42.482Z,65
2017-12-31T11:10:51.314Z,75
2017-12-31T11:11:16.914Z,85
2017-12-31T11:11:42.494Z,95
2017-12-31T11:12:08.041Z,95
2017-12-31T11:12:33.646Z,105
2017-12-31T11:12:59.014Z,115
2017-12-31T11:13:24.485Z,110
2017-12-31T11:13:50.022Z,105
2017-12-31T11:14:15.708Z,95
2017-12-31T11:14:41.264Z,105
2017-12-31T11:15:06.643Z,115
2017-12-31T11:15:32.053Z,110
2017-12-31T11:15:57.522Z,105
2017-12-31T11:16:23.006Z,100
2017-12-31T11:16:48.484Z,110
2017-12-31T11:17:13.967Z,105
2017-12-31T11:17:39.401Z,100
2017-12-31T11:18:04.922Z,105
2017-12-31T11:18:30.353Z,105
2017-12-31T11:18:55.929Z,90
2017-12-31T11:19:21.405Z,90
2017-12-31T11:19:46.902Z,90
2017-12-31T11:20:12.565Z,90
2017-12-31T11:20:38.024Z,100
2017-12-31T11:21:03.555Z,120
2017-12-31T11:21:28.984Z,130
2017-12-31T11:21:54.531Z,125
2017-12-31T11:22:19.960Z,115
2017-12-31T11:22:45.531Z,85
2017-12-31T11:23:11.144Z,70
2017-12-31T11:23:36.593Z,65
2017-12-31T11:24:02.231Z,65
2017-12-31T11:24:27.930Z,60
2017-12-31T11:24:53.423Z,55
2017-12-31T11:25:18.882Z,45
2017-12-31T11:25:44.366Z,50
2017-12-31T11:26:09.833Z,50
2017-12-31T11:26:35.394Z,45
2017-12-31T11:27:00.931Z,50
2017-12-31T11:27:26.408Z,60
2017-12-31T11:27:51.895Z,65
2017-12-31T11:28:17.348Z,65
2017-12-31T11:28:42.822Z,70
2017-12-31T11:29:08.366Z,80
2017-12-31T11:29:33.764Z,70
2017-12-31T11:29:59.259Z,70
2017-12-31T11:30:24.679Z,65
2017-12-31T11:30:50.138Z,70
2017-12-31T11:31:15.724Z,70
2017-12-31T11:31:41.196Z,70
2017-12-31T11:32:06.806Z,70
2017-12-31T11:32:32.194Z,70
2017-12-31T11:32:57.769Z,65
2017-12-31T11:33:24.043Z,70
2017-12-31T11:33:48.794Z,65
2017-12-31T11:34:14.286Z,80
2017-12-31T11:34:39.745Z,80
2017-12-31T11:35:05.242Z,75
2017-12-31T11:35:30.794Z,90
2017-12-31T11:35:56.262Z,95
2017-12-31T11:36:21.796Z,85
2017-12-31T11:36:47.260Z,90
2017-12-31T11:37:12.825Z,85
2017-12-31T11:37:38.212Z,90
2017-12-31T11:38:03.726Z,85
2017-12-31T11:38:29.316Z,85
2017-12-31T11:38:54.848Z,80
2017-12-31T11:39:20.266Z,65
2017-12-31T11:39:45.795Z,65
2017-12-31T11:40:11.266Z,75
2017-12-31T11:40:36.685Z,75
2017-12-31T11:41:02.291Z,75
2017-12-31T11:41:27.707Z,90
2017-12-31T11:41:53.205Z,80
2017-12-31T11:42:18.693Z,80
2017-12-31T11:42:44.077Z,105
2017-12-31T11:43:09.620Z,95
2017-12-31T11:43:35.101Z,95
2017-12-31T11:44:00.547Z,95
2017-12-31T11:44:26.128Z,105
2017-12-31T11:44:51.580Z,95
2017-12-31T11:45:17.055Z,95
2017-12-31T11:45:42.532Z,95
2017-12-31T11:46:08.109Z,95
2017-12-31T11:46:33.558Z,90
2017-12-31T11:46:58.967Z,90
2017-12-31T11:47:24.448Z,90
2017-12-31T11:47:49.961Z,90
2017-12-31T11:48:15.386Z,95
2017-12-31T11:48:40.935Z,90
2017-12-31T11:49:06.327Z,90
2017-12-31T11:49:31.853Z,110
2017-12-31T11:49:57.242Z,105
2017-12-31T11:50:22.751Z,105
2017-12-31T11:50:48.231Z,110
2017-12-31T11:51:13.840Z,95
2017-12-31T11:51:39.558Z,85
2017-12-31T11:52:04.998Z,75
2017-12-31T11:52:30.449Z,70
2017-12-31T11:53:44.568Z,85
2017-12-31T11:54:10.062Z,90
2017-12-31T11:54:35.496Z,85